Time;durP1;ratioP1;P1;durP2;ratioP2;P2;SDS_P1;SDS_P2;PMS_P1;PMS_P2;Temp;Humidity;BMP_temperature;BMP_pressure;BME280_temperature;BME280_humidity;BME280_pressure;Samples;Min_cycle;Max_cycle;Signal;HPM_P1;HPM_P2
2021/04/14 00:00:41;;;;;;;;;;;2.50;96.80;;;;;;5076968;28;19928;-72
2021/04/14 00:03:09;;;;;;;;;;;2.40;97.90;;;;;;5091729;28;19953;-71
2021/04/14 00:05:36;;;;;;;;;;;2.30;98.90;;;;;;5094696;28;19919;-71
2021/04/14 00:08:04;;;;;;;;;;;2.30;98.80;;;;;;5109459;28;20010;-71
2021/04/14 00:10:29;;;;;;;;;;;2.20;99.30;;;;;;5094183;28;19924;-71
2021/04/14 00:12:55;;;;;;;;;;;2.20;99.90;;;;;;5089898;28;19939;-71
2021/04/14 00:15:23;;;;;;;;;;;2.10;99.90;;;;;;5092327;28;20903;-71
2021/04/14 00:17:51;;;;;;;;;;;2.10;99.90;;;;;;5089696;28;19947;-71
2021/04/14 00:20:19;;;;;;;;;;;2.10;99.90;;;;;;5089664;28;19935;-71
2021/04/14 00:22:45;;;;;;;;;;;2.10;99.30;;;;;;5090378;28;20011;-71
2021/04/14 00:25:12;;;;;;;;;;;2.20;99.10;;;;;;5075272;28;19928;-71
2021/04/14 00:27:41;;;;;;;;;;;2.10;98.90;;;;;;5067156;28;19920;-71
2021/04/14 00:30:10;;;;;;;;;;;2.10;99.90;;;;;;5082536;28;20360;-71
2021/04/14 00:32:38;;;;;;;;;;;2.00;99.90;;;;;;5089490;28;20261;-71
2021/04/14 00:35:03;;;;;;;;;;;1.90;99.90;;;;;;5099700;28;19947;-71
2021/04/14 00:37:31;;;;;;;;;;;1.80;99.90;;;;;;5089084;28;19955;-72
2021/04/14 00:39:57;;;;;;;;;;;1.90;99.90;;;;;;5078814;28;19986;-71
2021/04/14 00:42:22;;;;;;;;;;;1.80;99.90;;;;;;5078590;28;20345;-71
2021/04/14 00:44:48;;;;;;;;;;;1.80;99.90;;;;;;5077466;28;19974;-71
2021/04/14 00:47:14;;;;;;;;;;;1.80;99.90;;;;;;5077499;28;19935;-71
2021/04/14 00:49:40;;;;;;;;;;;1.90;99.90;;;;;;5077173;28;19939;-71
2021/04/14 00:52:10;;;;;;;;;;;1.90;99.90;;;;;;5088592;28;19916;-72
2021/04/14 00:54:38;;;;;;;;;;;1.80;99.90;;;;;;5096164;28;19927;-72
2021/04/14 00:57:04;;;;;;;;;;;1.80;99.90;;;;;;5094889;28;20333;-72
2021/04/14 00:59:29;;;;;;;;;;;1.80;99.90;;;;;;5094808;28;19920;-72
2021/04/14 01:01:57;;;;;;;;;;;1.80;99.90;;;;;;5097359;28;19977;-72
2021/04/14 01:04:22;;;;;;;;;;;1.80;99.90;;;;;;5097395;28;19969;-72
2021/04/14 01:06:48;;;;;;;;;;;1.90;99.90;;;;;;5089909;28;19920;-72
2021/04/14 01:09:13;;;;;;;;;;;1.90;99.90;;;;;;5095698;28;19920;-72
2021/04/14 01:11:39;;;;;;;;;;;1.90;99.90;;;;;;5083782;28;20341;-73
2021/04/14 01:14:05;;;;;;;;;;;1.90;99.90;;;;;;5078514;28;19959;-72
2021/04/14 01:16:31;;;;;;;;;;;1.90;99.90;;;;;;5091374;28;19952;-73
2021/04/14 01:18:58;;;;;;;;;;;2.00;99.90;;;;;;5096474;28;20006;-72
2021/04/14 01:21:24;;;;;;;;;;;2.00;99.90;;;;;;5090267;28;19911;-73
2021/04/14 01:23:50;;;;;;;;;;;2.10;99.90;;;;;;5092310;28;19947;-72
2021/04/14 01:26:20;;;;;;;;;;;2.10;99.90;;;;;;5091842;28;20320;-73
2021/04/14 01:28:49;;;;;;;;;;;2.10;99.90;;;;;;5094226;28;20425;-73
2021/04/14 01:31:17;;;;;;;;;;;2.20;99.90;;;;;;5092669;28;19951;-72
2021/04/14 01:33:45;;;;;;;;;;;2.10;99.90;;;;;;5092327;28;19915;-73
2021/04/14 01:36:11;;;;;;;;;;;2.20;99.90;;;;;;5087658;28;19920;-73
2021/04/14 01:38:37;;;;;;;;;;;2.20;99.90;;;;;;5074941;28;20239;-73
2021/04/14 01:41:02;;;;;;;;;;;2.20;99.90;;;;;;5092381;27;20031;-73
2021/04/14 01:43:28;;;;;;;;;;;2.20;99.90;;;;;;5090570;28;19919;-73
2021/04/14 01:45:54;;;;;;;;;;;2.20;99.90;;;;;;5090430;28;19920;-73
2021/04/14 01:48:19;;;;;;;;;;;2.20;99.90;;;;;;5063681;28;20424;-73
2021/04/14 01:50:45;;;;;;;;;;;2.20;99.90;;;;;;5076223;28;19927;-73
2021/04/14 01:53:11;;;;;;;;;;;2.20;99.90;;;;;;5088116;28;19922;-73
2021/04/14 01:55:37;;;;;;;;;;;2.10;99.90;;;;;;5094020;28;19912;-73
2021/04/14 01:58:03;;;;;;;;;;;2.10;99.90;;;;;;5077762;28;19920;-73
2021/04/14 02:00:28;;;;;;;;;;;2.10;99.90;;;;;;5079617;28;20348;-73
2021/04/14 02:02:54;;;;;;;;;;;2.20;99.90;;;;;;5077735;28;19931;-73
2021/04/14 02:05:21;;;;;;;;;;;2.20;99.90;;;;;;5077801;28;19924;-73
2021/04/14 02:07:46;;;;;;;;;;;2.20;99.90;;;;;;5086721;28;20007;-73
2021/04/14 02:10:12;;;;;;;;;;;2.20;99.90;;;;;;5076524;28;20802;-73
2021/04/14 02:12:38;;;;;;;;;;;2.20;99.90;;;;;;5099650;27;20293;-74
2021/04/14 02:15:07;;;;;;;;;;;2.20;99.90;;;;;;5091248;28;20253;-74
2021/04/14 02:17:35;;;;;;;;;;;2.10;99.90;;;;;;5079999;28;19915;-73
2021/04/14 02:20:01;;;;;;;;;;;2.10;99.90;;;;;;5076464;28;19931;-74
2021/04/14 02:22:26;;;;;;;;;;;2.00;99.90;;;;;;5091088;27;19915;-73
2021/04/14 02:24:52;;;;;;;;;;;2.00;99.90;;;;;;5076702;28;19932;-74
2021/04/14 02:27:17;;;;;;;;;;;2.00;99.90;;;;;;5075499;28;19912;-74
2021/04/14 02:29:43;;;;;;;;;;;2.00;99.90;;;;;;5075578;28;19923;-73
2021/04/14 02:32:08;;;;;;;;;;;2.00;99.90;;;;;;5080743;28;20504;-74
2021/04/14 02:34:34;;;;;;;;;;;2.00;99.90;;;;;;5091204;28;19912;-74
2021/04/14 02:36:59;;;;;;;;;;;2.00;99.90;;;;;;5085492;28;19916;-74
2021/04/14 02:39:25;;;;;;;;;;;2.10;99.90;;;;;;5076183;28;19928;-74
2021/04/14 02:41:50;;;;;;;;;;;2.10;99.90;;;;;;5076229;28;20268;-74
2021/04/14 02:44:16;;;;;;;;;;;2.10;99.90;;;;;;5075931;28;19951;-74
2021/04/14 02:46:42;;;;;;;;;;;2.10;99.90;;;;;;5075627;28;20046;-74
2021/04/14 02:49:07;;;;;;;;;;;2.10;99.90;;;;;;5076106;28;19924;-74
2021/04/14 02:51:38;;;;;;;;;;;2.20;99.90;;;;;;5076642;28;19974;-74
2021/04/14 02:54:06;;;;;;;;;;;2.20;99.90;;;;;;5079827;28;19916;-74
2021/04/14 02:56:31;;;;;;;;;;;2.30;99.90;;;;;;5076143;28;19920;-74
2021/04/14 02:58:57;;;;;;;;;;;2.30;99.90;;;;;;5075933;28;20383;-74
2021/04/14 03:01:24;;;;;;;;;;;2.30;99.90;;;;;;5075520;28;19920;-74
2021/04/14 03:03:50;;;;;;;;;;;2.30;99.90;;;;;;5078846;28;19924;-74
2021/04/14 03:06:16;;;;;;;;;;;2.40;99.90;;;;;;5081280;28;19919;-74
2021/04/14 03:08:41;;;;;;;;;;;2.30;99.90;;;;;;5078630;28;19916;-74
2021/04/14 03:11:07;;;;;;;;;;;2.30;99.90;;;;;;5075759;28;19967;-74
2021/04/14 03:13:32;;;;;;;;;;;2.40;99.90;;;;;;5088373;28;19912;-74
2021/04/14 03:15:58;;;;;;;;;;;2.30;99.90;;;;;;5094836;28;19920;-74
2021/04/14 03:18:26;;;;;;;;;;;2.40;99.90;;;;;;5086473;28;19912;-74
2021/04/14 03:20:55;;;;;;;;;;;2.30;99.90;;;;;;5084397;28;19927;-74
2021/04/14 03:23:21;;;;;;;;;;;2.30;99.90;;;;;;5093779;28;19919;-74
2021/04/14 03:25:46;;;;;;;;;;;2.30;99.90;;;;;;5089395;28;19920;-74
2021/04/14 03:28:17;;;;;;;;;;;2.30;99.90;;;;;;5090564;28;20341;-74
2021/04/14 03:30:43;;;;;;;;;;;2.30;99.90;;;;;;5081507;28;19973;-74
2021/04/14 03:33:08;;;;;;;;;;;2.20;99.90;;;;;;5075484;28;20036;-74
2021/04/14 03:35:34;;;;;;;;;;;2.10;99.90;;;;;;5083689;28;20063;-74
2021/04/14 03:38:00;;;;;;;;;;;2.10;99.90;;;;;;5093333;28;19991;-75
2021/04/14 03:40:27;;;;;;;;;;;2.00;99.90;;;;;;5083074;28;19920;-74
2021/04/14 03:42:54;;;;;;;;;;;2.00;99.90;;;;;;5074718;28;19955;-74
2021/04/14 03:45:27;;;;;;;;;;;2.00;99.90;;;;;;5082573;28;20273;-74
2021/04/14 03:47:53;;;;;;;;;;;2.00;99.90;;;;;;5092287;28;19920;-75
2021/04/14 03:50:21;;;;;;;;;;;2.00;99.90;;;;;;5067484;28;20266;-74
2021/04/14 03:52:48;;;;;;;;;;;2.00;99.90;;;;;;5075196;28;19916;-74
2021/04/14 03:55:13;;;;;;;;;;;2.00;99.90;;;;;;5076471;28;19927;-75
2021/04/14 03:57:39;;;;;;;;;;;2.00;99.90;;;;;;5074483;28;19927;-75
2021/04/14 04:00:05;;;;;;;;;;;2.00;99.90;;;;;;5075595;28;19980;-75
2021/04/14 04:02:33;;;;;;;;;;;1.90;99.90;;;;;;5084359;28;19916;-75
2021/04/14 04:04:59;;;;;;;;;;;1.90;99.90;;;;;;5096071;28;19951;-75
2021/04/14 04:07:24;;;;;;;;;;;1.70;99.90;;;;;;5082459;28;20332;-75
2021/04/14 04:09:52;;;;;;;;;;;1.70;99.90;;;;;;5079288;28;20393;-75
2021/04/14 04:12:19;;;;;;;;;;;1.60;99.90;;;;;;5092800;28;19977;-76
2021/04/14 04:14:51;;;;;;;;;;;1.60;99.90;;;;;;5092193;28;19912;-75
2021/04/14 04:17:20;;;;;;;;;;;1.50;99.90;;;;;;5079485;28;20404;-75
2021/04/14 04:19:45;;;;;;;;;;;1.50;99.90;;;;;;5078291;28;20331;-75
2021/04/14 04:22:14;;;;;;;;;;;1.40;99.90;;;;;;5081844;28;19912;-75
2021/04/14 04:24:39;;;;;;;;;;;1.40;99.90;;;;;;5095109;28;19932;-76
2021/04/14 04:27:05;;;;;;;;;;;1.40;99.90;;;;;;5085599;28;19927;-75
2021/04/14 04:29:33;;;;;;;;;;;1.40;99.90;;;;;;5078629;28;19923;-75
2021/04/14 04:32:00;;;;;;;;;;;1.40;99.90;;;;;;5077630;28;20269;-75
2021/04/14 04:34:26;;;;;;;;;;;1.30;99.90;;;;;;5094942;28;19927;-75
2021/04/14 04:36:54;;;;;;;;;;;1.30;99.90;;;;;;5092817;28;19916;-75
2021/04/14 04:39:22;;;;;;;;;;;1.30;99.90;;;;;;5068436;28;20786;-75
2021/04/14 04:41:50;;;;;;;;;;;1.30;99.90;;;;;;5077943;28;20462;-76
2021/04/14 04:44:15;;;;;;;;;;;1.30;99.90;;;;;;5099077;28;19916;-75
2021/04/14 04:46:41;;;;;;;;;;;1.30;99.90;;;;;;5108267;27;19927;-75
2021/04/14 04:49:06;;;;;;;;;;;1.40;99.90;;;;;;5089495;28;20105;-75
2021/04/14 04:51:34;;;;;;;;;;;1.40;99.90;;;;;;5084717;28;20003;-75
2021/04/14 04:53:59;;;;;;;;;;;1.40;99.90;;;;;;5093343;28;19922;-74
2021/04/14 04:56:27;;;;;;;;;;;1.50;99.90;;;;;;5089310;28;19916;-75
2021/04/14 04:58:53;;;;;;;;;;;1.50;99.90;;;;;;5077885;28;19942;-75
2021/04/14 05:01:19;;;;;;;;;;;1.60;99.90;;;;;;5093382;28;19920;-75
2021/04/14 05:03:45;;;;;;;;;;;1.60;99.90;;;;;;5092765;28;19931;-75
2021/04/14 05:06:10;;;;;;;;;;;1.70;99.90;;;;;;5077484;28;20249;-75
2021/04/14 05:08:38;;;;;;;;;;;1.70;99.90;;;;;;5077142;28;19920;-75
2021/04/14 05:11:04;;;;;;;;;;;1.80;99.90;;;;;;5076068;28;19927;-75
2021/04/14 05:13:29;;;;;;;;;;;1.80;99.90;;;;;;5084369;28;19916;-75
2021/04/14 05:15:55;;;;;;;;;;;1.90;99.90;;;;;;5092982;28;19916;-75
2021/04/14 05:18:20;;;;;;;;;;;1.90;99.90;;;;;;5081141;28;19977;-74
2021/04/14 05:20:48;;;;;;;;;;;2.00;99.90;;;;;;5077072;28;19920;-75
2021/04/14 05:23:16;;;;;;;;;;;2.00;99.90;;;;;;5086859;28;19912;-75
2021/04/14 05:25:44;;;;;;;;;;;2.10;99.90;;;;;;5094170;28;19922;-75
2021/04/14 05:28:12;;;;;;;;;;;2.10;99.90;;;;;;5094384;28;19988;-75
2021/04/14 05:30:37;;;;;;;;;;;2.20;99.90;;;;;;5090612;28;20054;-75
2021/04/14 05:33:03;;;;;;;;;;;2.20;99.90;;;;;;5090015;28;19999;-74
2021/04/14 05:35:29;;;;;;;;;;;2.30;99.90;;;;;;5088096;28;19978;-74
2021/04/14 05:37:54;;;;;;;;;;;2.40;99.90;;;;;;5101990;27;20580;-74
2021/04/14 05:40:22;;;;;;;;;;;2.40;99.90;;;;;;5096051;28;20394;-74
2021/04/14 05:42:48;;;;;;;;;;;2.40;99.90;;;;;;5090844;28;20257;-75
2021/04/14 05:45:15;;;;;;;;;;;2.40;99.90;;;;;;5080753;28;19924;-74
2021/04/14 05:47:43;;;;;;;;;;;2.50;99.90;;;;;;5091021;28;19961;-74
2021/04/14 05:50:09;;;;;;;;;;;2.60;99.90;;;;;;5076829;28;19920;-74
2021/04/14 05:52:35;;;;;;;;;;;2.60;99.90;;;;;;5076514;28;19920;-74
2021/04/14 05:55:00;;;;;;;;;;;2.70;99.90;;;;;;5076194;28;19926;-74
2021/04/14 05:57:28;;;;;;;;;;;2.70;99.90;;;;;;5095420;28;20057;-74
2021/04/14 05:59:54;;;;;;;;;;;2.80;99.90;;;;;;5094316;28;19913;-74
2021/04/14 06:02:22;;;;;;;;;;;2.80;99.90;;;;;;5082008;28;20500;-74
2021/04/14 06:04:47;;;;;;;;;;;2.90;99.90;;;;;;5097065;28;19934;-75
2021/04/14 06:07:15;;;;;;;;;;;2.90;99.90;;;;;;5093999;28;19916;-78
2021/04/14 06:09:42;;;;;;;;;;;2.90;99.90;;;;;;5090359;28;19927;-73
2021/04/14 06:12:08;;;;;;;;;;;3.10;99.90;;;;;;5085960;28;19920;-74
2021/04/14 06:14:36;;;;;;;;;;;3.10;99.90;;;;;;5085680;28;19912;-73
2021/04/14 06:17:01;;;;;;;;;;;3.10;99.90;;;;;;5092430;28;19928;-73
2021/04/14 06:19:27;;;;;;;;;;;3.20;99.90;;;;;;5091416;28;19915;-75
2021/04/14 06:21:53;;;;;;;;;;;3.30;99.90;;;;;;5092427;28;19924;-75
2021/04/14 06:24:18;;;;;;;;;;;3.30;99.90;;;;;;5088532;28;19920;-73
2021/04/14 06:29:09;;;;;;;;;;;3.40;99.90;;;;;;5092494;28;19963;-72
2021/04/14 06:31:40;;;;;;;;;;;3.50;99.90;;;;;;5092010;28;19930;-73
2021/04/14 06:34:13;;;;;;;;;;;3.60;99.90;;;;;;5090243;28;19920;-72
2021/04/14 06:36:39;;;;;;;;;;;3.60;99.90;;;;;;5094634;28;19922;-72
2021/04/14 06:39:06;;;;;;;;;;;3.60;99.90;;;;;;5093082;28;20006;-72
2021/04/14 06:44:14;;;;;;;;;;;3.70;99.90;;;;;;5093340;28;21811;-72
2021/04/14 06:46:41;;;;;;;;;;;3.80;99.90;;;;;;5108259;27;19946;-72
2021/04/14 06:49:07;;;;;;;;;;;3.90;99.90;;;;;;5090167;28;19973;-72
2021/04/14 06:51:32;;;;;;;;;;;3.90;99.90;;;;;;5087832;28;19947;-71
2021/04/14 06:54:08;;;;;;;;;;;3.90;99.90;;;;;;5094821;28;19930;-72
2021/04/14 06:56:34;;;;;;;;;;;3.90;99.90;;;;;;5089704;28;19913;-73
2021/04/14 06:59:00;;;;;;;;;;;4.00;99.90;;;;;;5090441;28;19947;-74
2021/04/14 07:01:37;;;;;;;;;;;3.90;99.50;;;;;;5087542;28;19963;-71
2021/04/14 07:04:12;;;;;;;;;;;3.90;98.70;;;;;;5078192;28;19919;-71
2021/04/14 07:06:38;;;;;;;;;;;3.90;99.70;;;;;;5089012;28;19931;-71
2021/04/14 07:09:04;;;;;;;;;;;4.00;99.40;;;;;;5077050;28;20404;-73
2021/04/14 07:11:30;;;;;;;;;;;4.10;99.90;;;;;;5091764;28;19983;-71
2021/04/14 07:13:55;;;;;;;;;;;4.20;99.90;;;;;;5090347;28;20257;-71
2021/04/14 07:16:40;;;;;;;;;;;4.10;98.00;;;;;;5093203;28;19912;-71
2021/04/14 07:19:09;;;;;;;;;;;4.20;98.10;;;;;;5104516;27;19917;-71
2021/04/14 07:21:34;;;;;;;;;;;4.10;97.70;;;;;;5090754;28;19918;-71
2021/04/14 07:24:02;;;;;;;;;;;4.20;95.10;;;;;;5092264;28;19928;-71
2021/04/14 07:26:34;;;;;;;;;;;4.10;95.10;;;;;;5089027;28;19955;-71
2021/04/14 07:29:09;;;;;;;;;;;4.20;96.20;;;;;;5080752;28;20003;-71
2021/04/14 07:31:39;;;;;;;;;;;4.30;96.80;;;;;;5089129;28;19954;-71
2021/04/14 07:34:16;;;;;;;;;;;4.50;95.20;;;;;;5090407;28;20269;-71
2021/04/14 07:36:48;;;;;;;;;;;4.60;93.50;;;;;;5089142;28;19993;-71
2021/04/14 07:39:19;;;;;;;;;;;4.60;92.50;;;;;;5092846;28;19988;-71
2021/04/14 07:41:54;;;;;;;;;;;4.70;92.70;;;;;;5096867;28;19973;-71
2021/04/14 07:44:25;;;;;;;;;;;4.70;92.00;;;;;;5090516;28;20257;-71
2021/04/14 07:46:51;;;;;;;;;;;4.80;91.10;;;;;;5094045;28;19938;-71
2021/04/14 07:49:17;;;;;;;;;;;4.90;91.30;;;;;;5092060;28;19911;-71
2021/04/14 07:51:45;;;;;;;;;;;4.90;90.50;;;;;;5093275;28;19963;-71
2021/04/14 07:54:15;;;;;;;;;;;5.10;90.00;;;;;;5089470;28;19986;-71
2021/04/14 07:56:54;;;;;;;;;;;5.20;84.60;;;;;;5095199;28;19924;-71
2021/04/14 07:59:27;;;;;;;;;;;5.30;86.90;;;;;;5105498;28;19919;-72
2021/04/14 08:01:56;;;;;;;;;;;5.50;82.60;;;;;;5088056;28;19920;-73
2021/04/14 08:04:35;;;;;;;;;;;5.40;77.50;;;;;;5106535;28;19920;-71
2021/04/14 08:07:27;;;;;;;;;;;5.40;76.40;;;;;;5091448;28;19924;-71
2021/04/14 08:09:54;;;;;;;;;;;5.50;79.30;;;;;;5087049;28;19916;-70
2021/04/14 08:12:49;;;;;;;;;;;5.60;82.70;;;;;;5089435;28;19920;-70
2021/04/14 08:15:19;;;;;;;;;;;5.70;79.20;;;;;;5090628;28;19917;-70
2021/04/14 08:17:44;;;;;;;;;;;5.70;75.60;;;;;;5086542;28;19973;-70
2021/04/14 08:20:15;;;;;;;;;;;5.70;75.50;;;;;;5094215;28;20036;-70
2021/04/14 08:22:40;;;;;;;;;;;5.60;71.50;;;;;;5087431;28;20183;-71
2021/04/14 08:25:06;;;;;;;;;;;5.80;75.20;;;;;;5094398;28;19978;-71
2021/04/14 08:27:33;;;;;;;;;;;5.90;78.20;;;;;;5086799;28;19919;-71
2021/04/14 08:30:02;;;;;;;;;;;5.80;74.70;;;;;;5094036;28;20368;-70
2021/04/14 08:32:28;;;;;;;;;;;5.80;74.40;;;;;;5092795;28;19912;-70
2021/04/14 08:34:54;;;;;;;;;;;5.80;73.00;;;;;;5091359;28;19920;-71
2021/04/14 08:37:20;;;;;;;;;;;5.80;74.10;;;;;;5088293;28;20539;-70
2021/04/14 08:39:50;;;;;;;;;;;5.90;76.50;;;;;;5092559;28;19924;-70
2021/04/14 08:42:22;;;;;;;;;;;6.10;76.60;;;;;;5090922;28;19912;-70
2021/04/14 08:44:54;;;;;;;;;;;6.00;73.20;;;;;;5095648;28;19916;-72
2021/04/14 08:47:24;;;;;;;;;;;6.20;74.10;;;;;;5090037;28;19927;-71
2021/04/14 08:49:53;;;;;;;;;;;6.30;75.20;;;;;;5093921;28;19916;-74
2021/04/14 08:52:20;;;;;;;;;;;6.30;75.10;;;;;;5109621;27;19912;-74
2021/04/14 08:54:45;;;;;;;;;;;6.40;72.00;;;;;;5096094;28;19944;-71
2021/04/14 08:57:13;;;;;;;;;;;6.40;69.80;;;;;;5090354;28;19970;-71
2021/04/14 08:59:39;;;;;;;;;;;6.40;68.90;;;;;;5099414;28;20460;-71
2021/04/14 09:02:06;;;;;;;;;;;6.40;71.00;;;;;;5109566;27;20325;-71
2021/04/14 09:04:32;;;;;;;;;;;6.40;72.20;;;;;;5092324;28;19920;-71
2021/04/14 09:06:59;;;;;;;;;;;6.60;74.40;;;;;;5091308;28;19984;-71
2021/04/14 09:09:28;;;;;;;;;;;6.60;72.90;;;;;;5097734;28;19912;-71
2021/04/14 09:12:03;;;;;;;;;;;6.70;71.10;;;;;;5091610;28;19920;-71
2021/04/14 09:14:30;;;;;;;;;;;6.50;66.40;;;;;;5092204;28;20089;-71
2021/04/14 09:16:55;;;;;;;;;;;6.50;69.00;;;;;;5092910;28;20429;-71
2021/04/14 09:19:22;;;;;;;;;;;6.50;71.10;;;;;;5092365;28;19920;-72
2021/04/14 09:21:52;;;;;;;;;;;6.50;71.50;;;;;;5095867;28;20477;-71
2021/04/14 09:24:37;;;;;;;;;;;6.40;67.20;;;;;;5092755;28;19924;-72
2021/04/14 09:27:05;;;;;;;;;;;6.30;64.70;;;;;;5091418;28;20580;-71
2021/04/14 09:29:45;;;;;;;;;;;6.20;65.90;;;;;;5097097;28;19919;-71
2021/04/14 09:32:11;;;;;;;;;;;6.20;64.50;;;;;;5090609;28;20020;-71
2021/04/14 09:34:38;;;;;;;;;;;6.30;67.10;;;;;;5098274;28;19920;-71
2021/04/14 09:37:12;;;;;;;;;;;6.20;62.60;;;;;;5093379;28;19916;-71
2021/04/14 09:39:44;;;;;;;;;;;6.30;61.80;;;;;;5124511;27;19912;-71
2021/04/14 09:42:22;;;;;;;;;;;6.50;64.20;;;;;;5095017;28;19912;-71
2021/04/14 09:44:51;;;;;;;;;;;6.60;58.30;;;;;;5091119;28;19920;-71
2021/04/14 09:47:19;;;;;;;;;;;6.60;59.30;;;;;;5092867;28;20241;-71
2021/04/14 09:49:48;;;;;;;;;;;6.60;58.80;;;;;;5094835;28;20530;-71
2021/04/14 09:52:33;;;;;;;;;;;6.60;57.20;;;;;;5092918;28;19912;-72
2021/04/14 09:55:14;;;;;;;;;;;6.40;57.30;;;;;;5091636;28;20253;-71
2021/04/14 09:57:41;;;;;;;;;;;6.40;59.40;;;;;;5095730;28;19920;-72
2021/04/14 10:00:27;;;;;;;;;;;6.30;57.70;;;;;;5091385;28;19920;-72
2021/04/14 10:02:53;;;;;;;;;;;6.30;61.90;;;;;;5091233;28;19977;-69
2021/04/14 10:05:21;;;;;;;;;;;6.30;60.40;;;;;;5089135;28;19938;-69
2021/04/14 10:07:47;;;;;;;;;;;6.30;58.20;;;;;;5092395;28;19928;-70
2021/04/14 10:10:19;;;;;;;;;;;6.20;59.50;;;;;;5097282;28;19948;-69
2021/04/14 10:12:47;;;;;;;;;;;6.40;61.30;;;;;;5092612;28;20387;-69
2021/04/14 10:15:13;;;;;;;;;;;6.90;60.00;;;;;;5092073;28;19931;-69
2021/04/14 10:17:41;;;;;;;;;;;7.10;62.40;;;;;;5093059;28;19928;-68
2021/04/14 10:20:17;;;;;;;;;;;7.50;56.80;;;;;;5090995;28;19920;-69
2021/04/14 10:22:47;;;;;;;;;;;7.80;59.20;;;;;;5090193;28;19916;-70
2021/04/14 10:25:21;;;;;;;;;;;8.10;56.20;;;;;;5092173;28;19924;-69
2021/04/14 10:27:56;;;;;;;;;;;8.50;58.60;;;;;;5092138;28;19977;-68
2021/04/14 10:30:31;;;;;;;;;;;8.90;57.00;;;;;;5094584;28;19915;-69
2021/04/14 10:33:00;;;;;;;;;;;8.80;52.00;;;;;;5090605;28;19940;-70
2021/04/14 10:35:29;;;;;;;;;;;8.90;54.10;;;;;;5074600;28;19931;-69
2021/04/14 10:37:54;;;;;;;;;;;9.30;59.50;;;;;;5092141;28;19912;-69
2021/04/14 10:40:36;;;;;;;;;;;9.50;54.00;;;;;;5093261;28;19985;-69
2021/04/14 10:43:09;;;;;;;;;;;9.80;53.70;;;;;;5090475;28;19939;-69
2021/04/14 10:45:35;;;;;;;;;;;9.50;50.30;;;;;;5091913;28;19923;-68
2021/04/14 10:48:05;;;;;;;;;;;9.00;48.70;;;;;;5090529;28;20074;-71
2021/04/14 10:50:31;;;;;;;;;;;8.70;47.10;;;;;;5090952;28;19972;-69
2021/04/14 10:53:00;;;;;;;;;;;8.50;47.00;;;;;;5093080;28;19917;-69
2021/04/14 10:55:28;;;;;;;;;;;8.50;44.80;;;;;;5078213;28;20301;-69
2021/04/14 10:57:58;;;;;;;;;;;8.70;47.70;;;;;;5103590;27;19944;-69
2021/04/14 11:00:31;;;;;;;;;;;8.90;47.10;;;;;;5074960;28;19912;-69
2021/04/14 11:03:00;;;;;;;;;;;8.90;46.60;;;;;;5107359;27;19919;-69
2021/04/14 11:05:26;;;;;;;;;;;9.00;46.00;;;;;;5088368;28;19924;-69
2021/04/14 11:07:54;;;;;;;;;;;9.30;48.70;;;;;;5109846;27;19965;-69
2021/04/14 11:10:29;;;;;;;;;;;9.30;46.80;;;;;;5089842;28;20035;-69
2021/04/14 11:12:55;;;;;;;;;;;9.40;49.80;;;;;;5089927;28;20348;-69
2021/04/14 11:15:22;;;;;;;;;;;8.80;48.80;;;;;;5072081;28;19951;-69
2021/04/14 11:17:59;;;;;;;;;;;8.70;52.10;;;;;;5103875;27;19956;-69
2021/04/14 11:20:37;;;;;;;;;;;8.20;53.10;;;;;;5091663;28;19912;-69
2021/04/14 11:23:02;;;;;;;;;;;7.90;54.90;;;;;;5093195;28;20532;-69
2021/04/14 11:25:29;;;;;;;;;;;7.60;56.20;;;;;;5088084;28;19976;-70
2021/04/14 11:27:58;;;;;;;;;;;7.60;60.00;;;;;;5090742;28;20333;-70
2021/04/14 11:30:26;;;;;;;;;;;7.40;58.60;;;;;;5090985;28;20000;-70
2021/04/14 11:32:58;;;;;;;;;;;7.30;59.50;;;;;;5124418;27;19998;-70
2021/04/14 11:35:43;;;;;;;;;;;7.20;57.50;;;;;;5075984;28;19919;-70
2021/04/14 11:38:27;;;;;;;;;;;7.20;59.20;;;;;;5089925;28;20440;-70
2021/04/14 11:40:57;;;;;;;;;;;7.40;61.90;;;;;;5091309;28;19916;-70
2021/04/14 11:43:22;;;;;;;;;;;7.50;57.80;;;;;;5087257;28;19912;-69
2021/04/14 11:45:56;;;;;;;;;;;7.90;61.20;;;;;;5092143;28;19926;-69
2021/04/14 11:48:28;;;;;;;;;;;8.30;57.80;;;;;;5090722;28;19944;-70
2021/04/14 11:50:54;;;;;;;;;;;8.90;60.10;;;;;;5121809;27;19927;-69
2021/04/14 11:53:42;;;;;;;;;;;9.30;58.30;;;;;;5091210;28;19912;-69
2021/04/14 11:56:10;;;;;;;;;;;9.10;52.00;;;;;;5091354;28;20767;-70
2021/04/14 11:58:45;;;;;;;;;;;9.30;55.40;;;;;;5072341;28;19930;-70
2021/04/14 12:01:26;;;;;;;;;;;9.80;58.70;;;;;;5093616;28;19912;-69
2021/04/14 12:03:52;;;;;;;;;;;10.30;56.50;;;;;;5092939;28;19930;-69
2021/04/14 12:06:20;;;;;;;;;;;10.50;52.20;;;;;;5097814;28;19915;-69
2021/04/14 12:08:48;;;;;;;;;;;10.50;53.80;;;;;;5083607;28;19920;-69
2021/04/14 12:11:24;;;;;;;;;;;10.00;48.80;;;;;;5091548;28;19912;-70
2021/04/14 12:13:51;;;;;;;;;;;9.50;50.30;;;;;;5089044;28;19944;-70
2021/04/14 12:16:16;;;;;;;;;;;9.40;50.80;;;;;;5091062;28;20020;-71
2021/04/14 12:18:44;;;;;;;;;;;9.40;51.90;;;;;;5087201;28;19993;-70
2021/04/14 12:21:12;;;;;;;;;;;9.20;52.50;;;;;;5089005;28;19919;-70
2021/04/14 12:23:38;;;;;;;;;;;9.30;51.30;;;;;;5087505;28;20394;-70
2021/04/14 12:26:03;;;;;;;;;;;9.00;50.10;;;;;;5091609;28;19970;-71
2021/04/14 12:28:33;;;;;;;;;;;8.70;51.00;;;;;;5092372;28;21378;-70
2021/04/14 12:31:00;;;;;;;;;;;8.40;52.50;;;;;;5092415;28;19927;-71
2021/04/14 12:33:26;;;;;;;;;;;8.20;54.40;;;;;;5091384;28;19916;-70
2021/04/14 12:35:54;;;;;;;;;;;8.20;56.50;;;;;;5094019;28;19924;-73
2021/04/14 12:38:22;;;;;;;;;;;8.10;56.50;;;;;;5094945;28;19980;-70
2021/04/14 12:40:48;;;;;;;;;;;8.10;56.40;;;;;;5125095;27;19912;-70
2021/04/14 12:43:13;;;;;;;;;;;8.40;56.00;;;;;;5095640;28;19973;-70
2021/04/14 12:45:40;;;;;;;;;;;8.70;55.90;;;;;;5094377;28;19924;-70
2021/04/14 12:48:09;;;;;;;;;;;9.00;54.40;;;;;;5095061;28;19927;-70
2021/04/14 12:50:35;;;;;;;;;;;9.50;54.70;;;;;;5095171;28;19946;-70
2021/04/14 12:53:03;;;;;;;;;;;10.00;55.70;;;;;;5091877;28;19912;-70
2021/04/14 12:55:32;;;;;;;;;;;10.30;52.40;;;;;;5089874;28;20428;-70
2021/04/14 12:57:57;;;;;;;;;;;10.40;50.30;;;;;;5083742;28;19917;-70
2021/04/14 13:00:25;;;;;;;;;;;10.30;49.90;;;;;;5088661;28;20381;-71
2021/04/14 13:02:53;;;;;;;;;;;11.00;52.90;;;;;;5097346;28;20329;-70
2021/04/14 13:05:19;;;;;;;;;;;11.20;48.40;;;;;;5090969;28;20303;-71
2021/04/14 13:08:00;;;;;;;;;;;11.40;49.80;;;;;;5096252;28;19912;-71
2021/04/14 13:10:35;;;;;;;;;;;11.70;51.10;;;;;;5088030;28;19916;-70
2021/04/14 13:13:00;;;;;;;;;;;11.20;46.60;;;;;;5091238;28;19945;-71
2021/04/14 13:15:48;;;;;;;;;;;10.50;47.70;;;;;;5093617;28;19916;-70
2021/04/14 13:18:14;;;;;;;;;;;10.40;50.00;;;;;;5096698;28;19974;-71
2021/04/14 13:20:40;;;;;;;;;;;9.80;52.30;;;;;;5090770;28;19956;-72
2021/04/14 13:23:05;;;;;;;;;;;9.60;51.90;;;;;;5094074;28;20077;-71
2021/04/14 13:25:35;;;;;;;;;;;9.20;52.30;;;;;;5090757;28;19919;-71
2021/04/14 13:28:06;;;;;;;;;;;8.90;52.80;;;;;;5094825;28;20351;-72
2021/04/14 13:30:36;;;;;;;;;;;8.70;54.40;;;;;;5094212;28;19954;-71
2021/04/14 13:33:08;;;;;;;;;;;8.50;54.20;;;;;;5108461;27;19951;-72
2021/04/14 13:35:38;;;;;;;;;;;8.50;56.30;;;;;;5077831;28;19998;-71
2021/04/14 13:38:03;;;;;;;;;;;8.80;57.20;;;;;;5092727;28;19916;-71
2021/04/14 13:40:47;;;;;;;;;;;9.00;55.30;;;;;;5094570;28;19917;-70
2021/04/14 13:43:23;;;;;;;;;;;9.10;57.20;;;;;;5092345;28;19923;-70
2021/04/14 13:45:50;;;;;;;;;;;9.00;58.90;;;;;;5089168;28;19924;-71
2021/04/14 13:48:33;;;;;;;;;;;8.80;59.30;;;;;;5089696;28;19955;-71
2021/04/14 13:51:08;;;;;;;;;;;8.70;60.30;;;;;;5104699;27;19916;-71
2021/04/14 13:53:35;;;;;;;;;;;8.70;60.80;;;;;;5090328;28;20012;-71
2021/04/14 13:56:10;;;;;;;;;;;8.50;60.70;;;;;;5097052;28;20507;-71
2021/04/14 13:58:41;;;;;;;;;;;8.40;59.00;;;;;;5096070;28;20380;-72
2021/04/14 14:01:09;;;;;;;;;;;8.40;59.20;;;;;;5096012;28;19940;-71
2021/04/14 14:03:35;;;;;;;;;;;8.60;59.80;;;;;;5091595;28;19924;-72
2021/04/14 14:06:03;;;;;;;;;;;8.70;57.20;;;;;;5094175;28;19916;-72
2021/04/14 14:08:34;;;;;;;;;;;8.90;55.20;;;;;;5093703;28;20017;-71
2021/04/14 14:11:00;;;;;;;;;;;9.10;56.10;;;;;;5094843;28;19923;-71
2021/04/14 14:13:26;;;;;;;;;;;9.20;53.90;;;;;;5093510;28;19912;-71
2021/04/14 14:16:10;;;;;;;;;;;9.40;54.80;;;;;;5095542;28;19916;-71
2021/04/14 14:18:40;;;;;;;;;;;9.40;53.10;;;;;;5101374;28;19920;-71
2021/04/14 14:21:09;;;;;;;;;;;9.60;53.20;;;;;;5091313;28;19944;-72
2021/04/14 14:23:38;;;;;;;;;;;9.50;52.60;;;;;;5087960;28;19917;-71
2021/04/14 14:26:08;;;;;;;;;;;9.40;51.30;;;;;;5089892;28;19916;-71
2021/04/14 14:28:34;;;;;;;;;;;9.20;50.20;;;;;;5090936;28;19920;-72
2021/04/14 14:31:01;;;;;;;;;;;9.30;51.10;;;;;;5088494;28;19926;-72
2021/04/14 14:33:29;;;;;;;;;;;9.30;51.80;;;;;;5092376;28;19916;-72
2021/04/14 14:35:59;;;;;;;;;;;9.50;56.40;;;;;;5085592;28;19920;-72
2021/04/14 14:38:26;;;;;;;;;;;9.60;53.90;;;;;;5080314;28;19916;-71
2021/04/14 14:40:51;;;;;;;;;;;9.90;54.80;;;;;;5090233;28;20007;-71